Time;durP1;ratioP1;P1;durP2;ratioP2;P2;SDS_P1;SDS_P2;PMS_P1;PMS_P2;Temp;Humidity;BMP_temperature;BMP_pressure;BME280_temperature;BME280_humidity;BME280_pressure;Samples;Min_cycle;Max_cycle;Signal;HPM_P1;HPM_P2
2021/09/19 00:00:38;;;;;;;5.70;5.13;;;;;;;16.17;66.25;100065.03;5097719;28;20067;-62
2021/09/19 00:03:03;;;;;;;6.35;5.60;;;;;;;16.10;66.70;100058.75;5115605;28;20454;-62
2021/09/19 00:05:28;;;;;;;6.82;6.13;;;;;;;16.01;66.63;100056.56;5115925;28;20415;-62
2021/09/19 00:07:53;;;;;;;6.00;5.40;;;;;;;15.96;66.64;100051.47;5102003;28;20024;-61
2021/09/19 00:10:19;;;;;;;9.18;5.75;;;;;;;15.93;66.95;100058.03;5097115;28;20024;-61
2021/09/19 00:12:45;;;;;;;7.72;6.03;;;;;;;15.85;67.11;100053.78;5120057;28;20106;-61
2021/09/19 00:15:14;;;;;;;8.10;6.30;;;;;;;15.77;67.42;100056.81;5101526;28;20415;-61
2021/09/19 00:17:40;;;;;;;10.45;7.55;;;;;;;15.70;67.35;100048.53;5118216;28;20062;-61
2021/09/19 00:20:07;;;;;;;8.20;7.25;;;;;;;15.66;67.47;100042.16;5119644;28;20028;-61
2021/09/19 00:22:32;;;;;;;14.98;7.97;;;;;;;15.62;67.74;100047.13;5119625;28;20027;-61
2021/09/19 00:24:58;;;;;;;12.73;8.23;;;;;;;15.58;68.10;100040.75;5101320;28;20042;-60
2021/09/19 00:27:23;;;;;;;12.23;8.43;;;;;;;15.57;68.11;100047.63;5119386;28;20032;-61
2021/09/19 00:29:49;;;;;;;12.68;8.52;;;;;;;15.54;68.14;100045.69;5119557;28;20035;-64
2021/09/19 00:32:14;;;;;;;11.98;8.43;;;;;;;15.53;68.05;100052.59;5119342;28;20058;-64
2021/09/19 00:34:40;;;;;;;14.02;9.80;;;;;;;15.47;68.28;100045.88;5119884;28;20085;-62
2021/09/19 00:37:05;;;;;;;11.25;8.48;;;;;;;15.44;68.43;100041.09;5119183;28;20034;-62
2021/09/19 00:39:30;;;;;;;13.95;8.88;;;;;;;15.39;68.49;100044.47;5101279;28;20031;-60
2021/09/19 00:41:56;;;;;;;14.57;9.23;;;;;;;15.36;68.33;100045.38;5119146;28;20031;-61
2021/09/19 00:44:27;;;;;;;11.80;8.95;;;;;;;15.35;68.38;100043.78;5119598;28;20118;-61
2021/09/19 00:46:54;;;;;;;10.77;8.40;;;;;;;15.37;68.74;100041.28;5119064;28;20519;-61
2021/09/19 00:49:19;;;;;;;11.70;7.65;;;;;;;15.37;68.58;100035.63;5119069;28;20323;-61
2021/09/19 00:51:45;;;;;;;13.88;7.47;;;;;;;15.37;68.07;100035.63;5119242;28;20031;-60
2021/09/19 00:54:11;;;;;;;9.30;7.93;;;;;;;15.36;68.31;100036.88;5118801;28;20035;-61
2021/09/19 00:56:40;;;;;;;11.05;7.60;;;;;;;15.31;68.18;100038.19;5100907;28;20114;-64
2021/09/19 00:59:08;;;;;;;8.90;7.07;;;;;;;15.29;68.50;100039.88;5119179;28;20111;-62
2021/09/19 01:01:34;;;;;;;10.77;6.90;;;;;;;15.27;68.74;100039.50;5118629;28;20043;-61
2021/09/19 01:04:01;;;;;;;9.88;6.57;;;;;;;15.24;69.11;100037.56;5118861;28;20085;-61
2021/09/19 01:06:27;;;;;;;11.27;7.30;;;;;;;15.20;68.34;100042.53;5115186;28;20063;-62
2021/09/19 01:08:53;;;;;;;10.23;7.40;;;;;;;15.14;69.01;100040.25;5103944;28;20141;-61
2021/09/19 01:11:20;;;;;;;8.65;7.20;;;;;;;15.13;68.84;100032.19;5118475;28;20439;-61
2021/09/19 01:13:47;;;;;;;9.60;7.65;;;;;;;15.12;68.55;100030.59;5118840;28;20038;-64
2021/09/19 01:16:14;;;;;;;9.30;7.70;;;;;;;15.13;68.82;100035.03;5118250;28;20039;-62
2021/09/19 01:18:40;;;;;;;12.07;7.28;;;;;;;15.14;68.28;100033.78;5109971;28;20044;-63
2021/09/19 01:21:07;;;;;;;9.05;7.10;;;;;;;15.12;68.46;100039.09;5118584;28;20112;-61
2021/09/19 01:23:33;;;;;;;11.75;7.85;;;;;;;15.10;68.80;100041.56;5118361;28;20031;-61
2021/09/19 01:26:00;;;;;;;9.30;7.45;;;;;;;15.07;68.54;100040.44;5118169;28;20035;-61
2021/09/19 01:28:26;;;;;;;10.70;7.75;;;;;;;15.04;68.52;100046.94;5118585;28;20028;-61
2021/09/19 01:30:52;;;;;;;12.65;9.30;;;;;;;15.00;68.74;100051.09;5118079;28;20422;-61
2021/09/19 01:33:17;;;;;;;13.30;10.00;;;;;;;15.00;68.54;100046.22;5118437;28;20034;-61
2021/09/19 01:35:43;;;;;;;13.45;10.48;;;;;;;14.96;69.08;100045.53;5118319;28;20039;-63
2021/09/19 01:38:08;;;;;;;17.02;11.18;;;;;;;14.91;68.51;100043.22;5118029;28;20485;-59
2021/09/19 01:40:34;;;;;;;15.18;10.80;;;;;;;14.90;68.84;100046.50;5117979;28;20036;-61
2021/09/19 01:43:00;;;;;;;15.00;11.43;;;;;;;14.87;69.27;100048.19;5118437;28;20089;-61
2021/09/19 01:45:28;;;;;;;20.65;13.50;;;;;;;14.81;68.82;100045.09;5118253;28;20042;-61
2021/09/19 01:47:53;;;;;;;17.42;12.20;;;;;;;14.80;68.73;100045.53;5117579;28;20034;-61
2021/09/19 01:50:20;;;;;;;21.13;12.18;;;;;;;14.76;68.93;100041.97;5118360;28;20318;-60
2021/09/19 01:52:46;;;;;;;22.13;13.50;;;;;;;14.75;69.52;100048.84;5118013;28;20024;-63
2021/09/19 01:55:12;;;;;;;17.45;13.00;;;;;;;14.78;68.76;100036.66;5117874;28;20059;-61
2021/09/19 01:57:37;;;;;;;20.60;13.50;;;;;;;14.78;68.66;100039.50;5118093;28;20058;-63
2021/09/19 02:00:04;;;;;;;18.80;13.30;;;;;;;14.75;68.78;100044.00;5117843;28;20084;-61
2021/09/19 02:02:33;;;;;;;15.88;11.48;;;;;;;14.72;68.40;100044.09;5117741;28;20035;-61
2021/09/19 02:04:58;;;;;;;19.38;11.85;;;;;;;14.73;68.95;100040.03;5099512;28;20035;-62
2021/09/19 02:07:24;;;;;;;16.10;10.75;;;;;;;14.75;69.03;100043.19;5105820;28;20332;-62
2021/09/19 02:09:49;;;;;;;15.90;10.43;;;;;;;14.76;68.42;100041.97;5108514;28;20434;-63
2021/09/19 02:12:15;;;;;;;14.82;9.32;;;;;;;14.77;68.11;100047.19;5117743;28;20511;-62
2021/09/19 02:14:42;;;;;;;12.82;9.18;;;;;;;14.77;68.43;100049.22;5117796;28;20434;-62
2021/09/19 02:17:09;;;;;;;11.23;8.77;;;;;;;14.75;68.29;100043.19;5117080;28;20020;-62
2021/09/19 02:19:34;;;;;;;15.98;9.02;;;;;;;14.71;68.45;100039.66;5117472;28;20112;-61
2021/09/19 02:21:59;;;;;;;16.10;8.73;;;;;;;14.67;68.59;100044.59;5117426;28;20073;-63
2021/09/19 02:24:24;;;;;;;13.38;9.05;;;;;;;14.62;69.23;100040.28;5117076;28;20032;-63
2021/09/19 02:26:50;;;;;;;10.50;8.00;;;;;;;14.57;68.61;100054.16;5117178;28;20393;-61
2021/09/19 02:29:15;;;;;;;11.30;8.13;;;;;;;14.53;69.32;100048.56;5117226;28;20300;-61
2021/09/19 02:31:40;;;;;;;9.07;7.65;;;;;;;14.49;69.42;100051.44;5116270;28;20484;-61
2021/09/19 02:34:06;;;;;;;9.77;7.57;;;;;;;14.46;69.20;100052.34;5117024;28;20049;-61
2021/09/19 02:36:31;;;;;;;10.13;7.35;;;;;;;14.42;69.44;100045.13;5116998;28;20031;-61
2021/09/19 02:38:56;;;;;;;10.68;7.50;;;;;;;14.37;69.64;100037.19;5116785;28;20028;-62
2021/09/19 02:41:25;;;;;;;8.88;6.70;;;;;;;14.34;69.09;100038.06;5116836;28;20067;-64
2021/09/19 02:43:50;;;;;;;10.63;6.97;;;;;;;14.36;68.71;100030.72;5116966;28;20038;-61
2021/09/19 02:46:15;;;;;;;7.22;5.70;;;;;;;14.44;68.66;100037.84;5116859;28;20027;-62
2021/09/19 02:48:42;;;;;;;7.35;5.78;;;;;;;14.48;69.03;100030.06;5116553;28;20037;-61
2021/09/19 02:51:07;;;;;;;8.82;5.60;;;;;;;14.45;68.31;100038.63;5116910;28;20089;-60
2021/09/19 02:53:32;;;;;;;7.00;5.63;;;;;;;14.42;68.57;100025.34;5116550;28;20380;-61
2021/09/19 02:55:58;;;;;;;5.57;4.97;;;;;;;14.45;67.97;100025.28;5116780;28;20038;-61
2021/09/19 02:58:23;;;;;;;5.97;4.80;;;;;;;14.48;67.96;100021.59;5116490;28;20028;-63
2021/09/19 03:00:48;;;;;;;5.95;5.07;;;;;;;14.46;67.95;100015.56;5116620;28;20297;-61
2021/09/19 03:03:14;;;;;;;5.10;4.60;;;;;;;14.49;67.93;100023.19;5116603;28;20038;-61
2021/09/19 03:05:39;;;;;;;5.40;4.85;;;;;;;14.49;67.68;100020.34;5116351;28;20027;-61
2021/09/19 03:08:04;;;;;;;7.75;5.22;;;;;;;14.44;67.73;100023.69;5105950;28;20059;-61
2021/09/19 03:10:30;;;;;;;5.72;5.05;;;;;;;14.45;68.33;100022.47;5107107;28;20035;-62
2021/09/19 03:12:55;;;;;;;8.63;5.00;;;;;;;14.41;67.79;100033.03;5116239;28;20036;-63
2021/09/19 03:15:21;;;;;;;6.45;4.78;;;;;;;14.39;68.00;100029.03;5116525;28;20032;-62
2021/09/19 03:17:46;;;;;;;5.15;4.53;;;;;;;14.34;67.93;100026.75;5116088;28;20043;-60
2021/09/19 03:20:14;;;;;;;6.20;4.78;;;;;;;14.30;68.11;100020.38;5098360;28;20035;-63
2021/09/19 03:22:40;;;;;;;5.40;4.68;;;;;;;14.27;68.38;100021.25;5116065;28;20118;-60
2021/09/19 03:25:06;;;;;;;5.82;5.20;;;;;;;14.21;68.11;100018.91;5116255;28;20083;-60
2021/09/19 03:27:32;;;;;;;5.13;4.60;;;;;;;14.20;67.75;100022.19;5116201;28;20032;-63
2021/09/19 03:29:58;;;;;;;5.38;4.75;;;;;;;14.17;69.06;100018.19;5115884;28;20030;-61
2021/09/19 03:32:23;;;;;;;5.35;4.35;;;;;;;14.11;68.51;100025.59;5116299;28;20045;-63
2021/09/19 03:34:49;;;;;;;7.13;5.22;;;;;;;14.09;67.98;100025.25;5116123;28;20031;-60
2021/09/19 03:37:14;;;;;;;4.85;4.35;;;;;;;14.08;68.43;100025.69;5115652;28;20427;-62
2021/09/19 03:39:40;;;;;;;6.03;5.10;;;;;;;14.10;68.63;100028.88;5115918;28;20046;-61
2021/09/19 03:42:05;;;;;;;5.13;4.57;;;;;;;14.12;68.20;100026.41;5115787;28;20085;-60
2021/09/19 03:44:30;;;;;;;5.90;4.55;;;;;;;14.15;68.63;100031.19;5115891;28;20028;-61
2021/09/19 03:46:56;;;;;;;4.97;4.50;;;;;;;14.16;68.13;100032.78;5115905;28;20110;-61
2021/09/19 03:49:21;;;;;;;5.15;4.65;;;;;;;14.19;68.33;100031.91;5116005;28;20323;-60
2021/09/19 03:51:46;;;;;;;5.47;4.82;;;;;;;14.15;68.50;100031.97;5115541;28;20070;-60
2021/09/19 03:54:12;;;;;;;5.32;4.40;;;;;;;14.13;68.12;100028.78;5115834;28;20119;-60
2021/09/19 03:56:37;;;;;;;5.07;4.28;;;;;;;14.09;68.68;100028.06;5115765;28;20122;-60
2021/09/19 03:59:02;;;;;;;6.18;4.93;;;;;;;14.05;68.52;100026.56;5115894;28;20095;-62
2021/09/19 04:01:28;;;;;;;8.38;4.90;;;;;;;14.02;68.50;100027.44;5115515;28;20028;-62
2021/09/19 04:03:53;;;;;;;6.22;5.25;;;;;;;13.97;68.55;100019.44;5115924;28;20031;-61
2021/09/19 04:06:18;;;;;;;7.50;5.38;;;;;;;13.95;68.62;100030.38;5115535;28;20059;-62
2021/09/19 04:08:44;;;;;;;6.72;4.70;;;;;;;13.92;68.95;100030.00;5092965;28;20032;-60
2021/09/19 04:11:09;;;;;;;5.13;4.63;;;;;;;13.88;68.49;100029.28;5087899;28;20111;-62
2021/09/19 04:13:34;;;;;;;5.95;4.60;;;;;;;13.87;68.80;100039.00;5115722;28;20063;-61
2021/09/19 04:16:00;;;;;;;8.45;4.90;;;;;;;13.86;68.55;100036.63;5115620;28;20059;-61
2021/09/19 04:18:26;;;;;;;5.65;4.63;;;;;;;13.93;68.69;100042.91;5115392;28;20074;-61
2021/09/19 04:20:52;;;;;;;7.35;5.18;;;;;;;14.02;68.69;100033.88;5115585;28;20059;-62
2021/09/19 04:23:17;;;;;;;6.70;4.97;;;;;;;14.03;68.03;100034.66;5115625;28;20057;-62
2021/09/19 04:25:43;;;;;;;6.13;4.95;;;;;;;14.02;68.11;100033.06;5115468;28;20031;-62
2021/09/19 04:28:08;;;;;;;5.28;4.70;;;;;;;13.95;68.70;100038.84;5115551;28;20327;-60
2021/09/19 04:30:34;;;;;;;5.80;4.38;;;;;;;13.85;68.38;100035.81;5115612;28;20092;-62
2021/09/19 04:32:59;;;;;;;6.88;5.28;;;;;;;13.81;68.78;100043.56;5115193;28;20034;-61
2021/09/19 04:35:24;;;;;;;5.45;4.88;;;;;;;13.73;69.23;100036.47;5115432;28;20323;-61
2021/09/19 04:37:50;;;;;;;16.15;5.20;;;;;;;13.69;69.02;100040.56;5115412;28;20046;-60
2021/09/19 04:40:15;;;;;;;6.43;4.72;;;;;;;13.65;69.55;100049.13;5115310;28;20411;-61
2021/09/19 04:42:41;;;;;;;6.80;5.13;;;;;;;13.64;70.10;100050.34;5115558;28;20123;-62
2021/09/19 04:45:08;;;;;;;13.48;5.97;;;;;;;13.65;69.79;100057.59;5115238;28;20437;-62
2021/09/19 04:47:33;;;;;;;11.00;5.63;;;;;;;13.69;69.29;100061.13;5115435;28;20118;-61
2021/09/19 04:49:58;;;;;;;6.38;5.40;;;;;;;13.71;69.37;100055.09;5114692;28;20292;-63
2021/09/19 04:52:24;;;;;;;7.25;5.07;;;;;;;13.71;69.73;100058.69;5115487;28;20059;-62
2021/09/19 04:54:49;;;;;;;8.77;5.05;;;;;;;13.72;69.37;100063.13;5118144;28;20081;-62
2021/09/19 04:57:15;;;;;;;10.50;5.45;;;;;;;13.72;69.47;100067.97;5118948;28;20031;-60
2021/09/19 04:59:40;;;;;;;6.55;5.18;;;;;;;13.75;70.14;100070.72;5119199;28;20032;-62
2021/09/19 05:02:05;;;;;;;5.70;4.80;;;;;;;13.83;69.80;100069.34;5118711;28;20031;-62
2021/09/19 05:04:32;;;;;;;6.55;4.93;;;;;;;13.86;69.59;100060.00;5118756;28;20042;-62
2021/09/19 05:06:57;;;;;;;5.63;4.97;;;;;;;13.89;69.76;100070.44;5118724;28;20115;-62
2021/09/19 05:09:23;;;;;;;10.07;5.13;;;;;;;13.95;70.18;100064.28;5118957;28;20111;-62
2021/09/19 05:11:49;;;;;;;10.15;4.85;;;;;;;14.00;70.51;100060.97;5102610;28;20036;-61
2021/09/19 05:14:14;;;;;;;6.30;5.13;;;;;;;14.03;70.62;100069.38;5115500;28;20084;-62
2021/09/19 05:16:39;;;;;;;6.30;5.50;;;;;;;14.07;70.41;100072.94;5118939;28;20318;-65
2021/09/19 05:19:05;;;;;;;5.13;4.63;;;;;;;14.13;70.58;100067.56;5099933;28;20043;-61
2021/09/19 05:21:31;;;;;;;5.07;4.57;;;;;;;14.27;69.94;100072.94;5118617;28;20368;-62
2021/09/19 05:23:57;;;;;;;6.15;4.53;;;;;;;14.39;69.35;100069.44;5118578;28;20104;-62
2021/09/19 05:26:22;;;;;;;6.72;4.88;;;;;;;14.49;69.16;100067.63;5118700;28;20419;-61
2021/09/19 05:28:47;;;;;;;4.95;4.25;;;;;;;14.57;68.79;100071.91;5118368;28;20093;-61
2021/09/19 05:31:13;;;;;;;5.15;4.55;;;;;;;14.66;68.97;100076.97;5118221;28;20050;-61
2021/09/19 05:33:39;;;;;;;6.18;4.28;;;;;;;14.73;68.71;100071.13;5118332;28;20031;-61
2021/09/19 05:36:04;;;;;;;5.07;4.28;;;;;;;14.78;68.41;100068.56;5117959;28;20035;-62
2021/09/19 05:38:30;;;;;;;10.18;4.75;;;;;;;14.88;68.17;100077.28;5118251;28;20103;-62
2021/09/19 05:40:55;;;;;;;6.78;4.60;;;;;;;14.93;68.31;100071.88;5118391;28;20035;-62
2021/09/19 05:43:21;;;;;;;6.82;4.30;;;;;;;14.97;68.51;100080.28;5116390;28;20115;-62
2021/09/19 05:45:46;;;;;;;7.38;4.85;;;;;;;15.04;68.01;100069.59;5117503;28;20441;-63
2021/09/19 05:48:11;;;;;;;8.35;4.82;;;;;;;15.14;68.16;100073.41;5117451;28;20097;-61
2021/09/19 05:50:37;;;;;;;4.80;4.30;;;;;;;15.22;68.33;100077.66;5099902;28;20050;-61
2021/09/19 05:53:02;;;;;;;5.53;4.28;;;;;;;15.33;67.12;100080.22;5117604;28;20034;-61
2021/09/19 05:55:27;;;;;;;8.88;5.80;;;;;;;15.42;67.11;100069.06;5117931;28;20065;-61
2021/09/19 05:57:53;;;;;;;15.30;9.07;;;;;;;15.55;67.08;100086.94;5117869;28;20035;-62
2021/09/19 06:00:19;;;;;;;12.13;9.00;;;;;;;15.63;66.51;100081.91;5115759;28;20023;-63
2021/09/19 06:02:44;;;;;;;11.80;9.48;;;;;;;15.72;66.72;100076.41;5115489;28;20047;-63
2021/09/19 06:05:10;;;;;;;13.85;8.38;;;;;;;15.85;66.42;100079.28;5116872;28;20043;-62
2021/09/19 06:07:36;;;;;;;6.68;5.65;;;;;;;15.96;65.82;100059.97;5117617;28;20034;-63
2021/09/19 06:10:02;;;;;;;9.32;5.90;;;;;;;16.06;65.95;100076.66;5117344;28;20061;-64
2021/09/19 06:12:28;;;;;;;6.57;5.28;;;;;;;16.19;65.09;100076.72;5117081;28;20036;-65
2021/09/19 06:14:54;;;;;;;5.25;4.50;;;;;;;16.29;64.67;100067.09;5117572;28;20038;-65
2021/09/19 06:17:20;;;;;;;4.57;3.97;;;;;;;16.37;64.03;100068.47;5116647;28;20054;-64
2021/09/19 06:19:47;;;;;;;5.85;5.07;;;;;;;16.48;64.77;100073.84;5117583;28;20023;-65
2021/09/19 06:22:13;;;;;;;5.78;5.07;;;;;;;16.58;64.21;100067.03;5116810;28;20032;-64
2021/09/19 06:24:38;;;;;;;5.82;4.78;;;;;;;16.64;63.77;100068.06;5116652;28;20043;-64
2021/09/19 06:27:03;;;;;;;7.90;4.35;;;;;;;16.73;63.59;100066.66;5116091;28;20131;-66
2021/09/19 06:29:29;;;;;;;6.30;5.05;;;;;;;16.82;63.52;100064.72;5116527;28;20063;-66
2021/09/19 06:31:55;;;;;;;6.82;4.97;;;;;;;16.90;64.30;100068.91;5114236;28;20042;-67
2021/09/19 06:34:21;;;;;;;5.57;4.25;;;;;;;17.02;63.58;100064.50;5091573;28;20054;-63
2021/09/19 06:36:46;;;;;;;10.13;4.55;;;;;;;17.15;64.00;100070.16;5116743;28;20032;-64
2021/09/19 06:39:11;;;;;;;7.47;4.88;;;;;;;17.26;63.40;100074.25;5116274;28;20085;-63
2021/09/19 06:41:37;;;;;;;8.57;5.13;;;;;;;17.34;62.97;100068.31;5116704;28;20031;-65
2021/09/19 06:44:03;;;;;;;7.07;4.10;;;;;;;17.46;63.21;100068.28;5116475;28;20044;-65
2021/09/19 06:46:31;;;;;;;7.85;4.80;;;;;;;17.60;62.91;100073.50;5111129;28;20031;-67
2021/09/19 06:49:01;;;;;;;7.90;4.88;;;;;;;17.72;63.11;100068.25;5107912;28;20032;-63
2021/09/19 06:51:26;;;;;;;7.28;5.43;;;;;;;17.79;61.56;100068.78;5109421;28;20110;-64
2021/09/19 06:53:52;;;;;;;6.72;5.15;;;;;;;17.87;61.62;100070.16;5111337;28;20110;-63
2021/09/19 06:56:20;;;;;;;6.72;5.88;;;;;;;17.97;61.01;100064.53;5116242;28;20435;-64
2021/09/19 06:58:45;;;;;;;6.55;5.75;;;;;;;18.02;60.80;100064.72;5109635;28;20050;-62
2021/09/19 07:01:11;;;;;;;7.70;6.07;;;;;;;18.01;61.00;100068.81;5112280;28;20434;-62
2021/09/19 07:03:36;;;;;;;8.57;5.90;;;;;;;18.07;60.90;100066.97;5109866;28;20036;-64
2021/09/19 07:06:02;;;;;;;6.10;5.10;;;;;;;18.18;60.62;100075.13;5096317;28;20042;-61
2021/09/19 07:08:27;;;;;;;8.05;6.10;;;;;;;18.26;61.32;100073.59;5116326;28;20050;-61
2021/09/19 07:10:53;;;;;;;6.72;5.47;;;;;;;18.38;61.02;100072.75;5116379;28;20030;-60
2021/09/19 07:13:21;;;;;;;6.50;5.30;;;;;;;18.53;60.89;100081.53;5109280;28;20054;-61
2021/09/19 07:15:49;;;;;;;5.93;4.90;;;;;;;18.64;60.55;100076.25;5111081;28;20066;-60
2021/09/19 07:18:15;;;;;;;7.93;5.25;;;;;;;18.78;60.38;100081.38;5115220;28;20065;-59
2021/09/19 07:20:40;;;;;;;8.43;4.85;;;;;;;18.92;59.41;100079.25;5113315;28;20036;-62
2021/09/19 07:23:05;;;;;;;5.60;4.93;;;;;;;19.05;60.05;100083.56;5113913;28;20063;-62
2021/09/19 07:25:31;;;;;;;7.40;4.72;;;;;;;19.12;58.41;100083.25;5116088;28;20071;-63
2021/09/19 07:27:56;;;;;;;7.82;5.07;;;;;;;19.18;58.57;100089.16;5115724;28;20043;-62
2021/09/19 07:30:22;;;;;;;6.00;4.88;;;;;;;19.22;58.44;100086.97;5112657;28;20081;-62
2021/09/19 07:32:47;;;;;;;4.82;4.22;;;;;;;19.30;58.86;100076.84;5114261;28;20076;-60
2021/09/19 07:35:12;;;;;;;8.63;5.00;;;;;;;19.47;58.31;100079.44;5115892;28;20073;-60
2021/09/19 07:37:38;;;;;;;6.45;4.60;;;;;;;19.61;57.86;100081.69;5108542;28;20031;-60
2021/09/19 07:40:05;;;;;;;5.63;4.40;;;;;;;19.75;57.63;100083.94;5116043;28;20085;-60
2021/09/19 07:42:31;;;;;;;5.40;4.53;;;;;;;19.80;56.84;100086.16;5115735;28;20110;-63
2021/09/19 07:44:56;;;;;;;5.07;4.55;;;;;;;19.85;58.33;100081.88;5116085;28;20352;-64
2021/09/19 07:47:26;;;;;;;5.20;4.20;;;;;;;20.02;57.79;100080.31;5115789;28;20056;-64
2021/09/19 07:49:51;;;;;;;5.70;4.03;;;;;;;20.18;57.96;100076.34;5115452;28;20114;-65
2021/09/19 07:52:18;;;;;;;6.00;4.88;;;;;;;20.33;56.54;100083.78;5115279;28;20118;-64
2021/09/19 07:54:43;;;;;;;9.50;4.70;;;;;;;20.41;56.07;100083.47;5106516;28;20114;-63
2021/09/19 07:57:09;;;;;;;5.35;4.50;;;;;;;20.47;55.92;100084.41;5114530;28;20165;-64
2021/09/19 07:59:34;;;;;;;6.32;4.40;;;;;;;20.44;55.60;100083.31;5114774;28;20117;-65
2021/09/19 08:01:59;;;;;;;10.00;5.32;;;;;;;20.55;56.15;100082.84;5114498;28;20032;-63
2021/09/19 08:04:25;;;;;;;17.17;6.25;;;;;;;20.66;56.31;100083.91;5109530;28;20864;-63
2021/09/19 08:06:50;;;;;;;10.52;6.22;;;;;;;20.79;55.76;100077.19;5108028;28;20165;-60
2021/09/19 08:09:15;;;;;;;11.15;5.75;;;;;;;20.86;54.87;100079.72;5108016;28;20028;-62
2021/09/19 08:11:41;;;;;;;9.30;5.68;;;;;;;20.85;53.75;100086.72;5113606;28;20141;-63
2021/09/19 08:14:06;;;;;;;10.63;5.05;;;;;;;20.82;54.46;100079.13;5114660;28;20084;-64
2021/09/19 08:16:36;;;;;;;7.47;5.22;;;;;;;20.87;55.51;100087.03;5091695;28;20032;-63
2021/09/19 08:19:02;;;;;;;9.43;5.38;;;;;;;20.99;54.93;100088.88;5106491;28;20055;-64
2021/09/19 08:21:28;;;;;;;10.80;5.45;;;;;;;21.00;54.21;100079.03;5110515;28;20035;-64
2021/09/19 08:23:53;;;;;;;11.13;6.78;;;;;;;21.07;54.33;100077.88;5112592;28;20059;-63
2021/09/19 08:26:19;;;;;;;8.50;6.35;;;;;;;21.09;54.08;100096.16;5111454;28;20033;-61
2021/09/19 08:28:44;;;;;;;9.30;7.10;;;;;;;21.13;53.75;100088.19;5113791;28;20487;-60
2021/09/19 08:31:09;;;;;;;10.68;6.70;;;;;;;21.16;53.13;100101.53;5099478;28;20085;-62
2021/09/19 08:33:34;;;;;;;10.38;6.07;;;;;;;21.22;54.26;100101.66;5113225;28;20096;-61
2021/09/19 08:36:00;;;;;;;8.07;5.25;;;;;;;21.19;53.44;100094.03;5097541;28;20304;-61
2021/09/19 08:38:26;;;;;;;4.45;3.13;;;;;;;21.20;52.66;100099.28;5109660;28;20575;-60
2021/09/19 08:40:52;;;;;;;6.57;3.30;;;;;;;21.25;53.40;100098.63;5112113;28;20114;-64
2021/09/19 08:43:18;;;;;;;7.00;3.40;;;;;;;21.32;53.08;100093.84;5109704;28;20418;-60
2021/09/19 08:45:47;;;;;;;5.75;2.85;;;;;;;21.36;52.34;100095.25;5113128;28;20043;-63
2021/09/19 08:48:15;;;;;;;3.20;2.90;;;;;;;21.38;52.88;100086.22;5117861;28;20345;-62
2021/09/19 08:50:40;;;;;;;4.75;3.22;;;;;;;21.42;53.64;100090.47;5118927;28;20470;-61
2021/09/19 08:53:06;;;;;;;4.20;2.80;;;;;;;21.45;52.91;100094.41;5118010;28;20110;-60
2021/09/19 08:55:31;;;;;;;4.03;3.22;;;;;;;21.51;52.79;100101.84;5110310;28;20373;-58
2021/09/19 08:57:56;;;;;;;6.63;4.07;;;;;;;21.54;51.72;100102.94;5113247;28;20111;-64
2021/09/19 09:00:22;;;;;;;5.30;4.03;;;;;;;21.56;52.50;100092.59;5118051;28;20024;-63
2021/09/19 09:02:53;;;;;;;8.48;4.20;;;;;;;21.59;52.82;100090.81;5113202;28;20058;-62
2021/09/19 09:05:20;;;;;;;6.93;3.85;;;;;;;21.65;51.76;100091.75;5116235;28;20470;-60
2021/09/19 09:07:46;;;;;;;8.90;3.75;;;;;;;21.72;52.28;100093.47;5118546;28;20035;-59
2021/09/19 09:10:12;;;;;;;5.78;2.92;;;;;;;21.70;51.58;100085.38;5118061;28;20517;-62
2021/09/19 09:12:37;;;;;;;3.58;2.95;;;;;;;21.77;51.79;100073.56;5110177;28;20503;-63
2021/09/19 09:15:05;;;;;;;3.58;2.15;;;;;;;21.84;52.04;100078.09;5113224;28;20089;-63
2021/09/19 09:17:30;;;;;;;3.95;2.40;;;;;;;21.88;51.21;100076.63;5118173;28;20127;-61
2021/09/19 09:20:00;;;;;;;4.70;2.60;;;;;;;21.93;51.39;100075.19;5115319;28;20110;-63
2021/09/19 09:22:27;;;;;;;8.20;2.80;;;;;;;22.00;52.12;100079.75;5118289;28;20041;-64
2021/09/19 09:25:25;;;;;;;7.72;2.38;;;;;;;22.04;50.70;100086.09;5117294;28;20454;-60
2021/09/19 09:27:51;;;;;;;6.10;2.75;;;;;;;22.11;50.64;100074.25;5106412;28;20035;-60
2021/09/19 09:30:22;;;;;;;7.13;2.55;;;;;;;22.18;50.12;100079.59;5118595;28;20023;-64
2021/09/19 09:32:57;;;;;;;2.58;1.95;;;;;;;;;;5118292;28;20023;-61
2021/09/19 09:35:25;;;;;;;2.65;1.92;;;;;;;22.27;49.01;100082.41;5118136;28;20035;-60
2021/09/19 09:37:51;;;;;;;7.65;2.50;;;;;;;22.35;49.15;100072.13;5118319;28;20297;-60
2021/09/19 09:40:31;;;;;;;4.47;2.50;;;;;;;22.40;48.99;100068.56;5117233;28;20023;-61
2021/09/19 09:43:06;;;;;;;4.30;1.83;;;;;;;22.46;49.76;100060.91;5118125;28;20038;-61
2021/09/19 09:45:32;;;;;;;11.73;3.22;;;;;;;22.48;48.84;100057.53;5117645;28;20318;-60
2021/09/19 09:47:58;;;;;;;6.78;2.58;;;;;;;22.41;48.86;100064.44;5117654;28;20058;-64
2021/09/19 09:50:26;;;;;;;8.45;2.83;;;;;;;22.49;49.14;100065.63;5117650;28;20220;-59
2021/09/19 09:52:52;;;;;;;6.38;2.55;;;;;;;22.54;48.77;100063.38;5117405;28;20055;-60
2021/09/19 09:55:21;;;;;;;306.92;26.85;;;;;;;22.57;48.74;100059.50;5117232;28;20032;-60
2021/09/19 09:58:09;;;;;;;13.02;2.83;;;;;;;22.65;48.59;100060.69;5117192;28;20035;-60
2021/09/19 10:00:36;;;;;;;10.77;3.10;;;;;;;22.64;48.99;100054.16;5115187;28;20039;-60
2021/09/19 10:03:02;;;;;;;28.13;4.70;;;;;;;22.65;48.84;100050.03;5117713;28;20051;-60
2021/09/19 10:05:28;;;;;;;4.30;2.38;;;;;;;22.64;48.91;100048.44;5117632;28;20084;-60
2021/09/19 10:07:54;;;;;;;2.78;2.15;;;;;;;22.64;48.17;100053.38;5117683;28;20093;-60
2021/09/19 10:10:21;;;;;;;4.30;1.80;;;;;;;22.67;49.45;100049.53;5117372;28;20037;-60
2021/09/19 10:12:48;;;;;;;4.18;2.28;;;;;;;22.69;47.86;100036.28;5096609;28;20035;-60
2021/09/19 10:15:14;;;;;;;3.03;1.88;;;;;;;22.72;49.20;100045.97;5117253;28;20035;-60
2021/09/19 10:17:40;;;;;;;3.15;2.13;;;;;;;22.73;48.17;100039.72;5099222;28;20338;-62
2021/09/19 10:20:12;;;;;;;4.72;2.67;;;;;;;22.84;47.80;100050.63;5117548;28;20107;-60
2021/09/19 10:22:49;;;;;;;4.03;2.60;;;;;;;22.85;47.23;100057.94;5117260;28;20043;-67
2021/09/19 10:25:25;;;;;;;4.63;3.25;;;;;;;22.85;47.53;100057.94;5117365;28;20361;-60
2021/09/19 10:27:51;;;;;;;5.20;3.22;;;;;;;22.88;47.53;100051.22;5117417;28;20024;-62
2021/09/19 10:30:18;;;;;;;3.92;2.17;;;;;;;22.95;47.51;100050.81;5117211;28;20031;-62
2021/09/19 10:32:48;;;;;;;3.40;1.58;;;;;;;23.01;47.83;100048.84;5117189;28;20301;-63
2021/09/19 10:35:22;;;;;;;8.13;2.10;;;;;;;23.07;47.68;100043.97;5114845;28;20047;-62
2021/09/19 10:38:00;;;;;;;7.05;1.60;;;;;;;23.10;48.05;100042.97;5108677;28;20040;-60
2021/09/19 10:40:33;;;;;;;4.30;1.90;;;;;;;23.18;46.33;100031.88;5114738;28;20023;-60
2021/09/19 10:42:59;;;;;;;6.40;1.80;;;;;;;23.27;46.02;100031.75;5116814;28;20031;-60
2021/09/19 10:45:52;;;;;;;3.67;1.42;;;;;;;23.34;45.21;100031.34;5101324;28;20031;-61
2021/09/19 10:48:27;;;;;;;3.92;1.40;;;;;;;23.35;45.99;100037.88;5096031;28;20040;-61
2021/09/19 10:51:06;;;;;;;4.05;1.88;;;;;;;23.34;45.67;100030.56;5116465;28;20085;-60
2021/09/19 10:53:32;;;;;;;1.40;1.30;;;;;;;23.27;46.52;100031.75;5100888;28;20451;-60
2021/09/19 10:56:04;;;;;;;2.17;1.73;;;;;;;23.21;46.61;100030.88;5114664;28;20044;-60
2021/09/19 10:58:44;;;;;;;2.45;1.85;;;;;;;23.23;46.60;100031.16;5116498;28;20031;-60
2021/09/19 11:01:26;;;;;;;2.05;1.50;;;;;;;23.21;46.85;100036.63;5116427;28;20024;-62
2021/09/19 11:04:01;;;;;;;3.00;1.70;;;;;;;23.12;46.38;100028.16;5112220;28;20114;-60
2021/09/19 11:06:40;;;;;;;2.17;1.80;;;;;;;23.06;46.99;100027.28;5116502;28;20032;-59
2021/09/19 11:09:26;;;;;;;2.20;1.90;;;;;;;23.04;46.41;100024.91;5111972;28;20036;-60
2021/09/19 11:12:11;;;;;;;4.10;2.13;;;;;;;23.10;46.97;100011.44;5110095;28;20086;-60
2021/09/19 11:15:06;;;;;;;2.55;1.88;;;;;;;23.19;47.45;100013.38;5110396;28;20364;-60
2021/09/19 11:17:34;;;;;;;1.85;1.48;;;;;;;23.26;46.86;100006.44;5112157;28;20038;-60
2021/09/19 11:20:12;;;;;;;3.13;1.45;;;;;;;23.30;46.47;100012.78;5116107;28;20112;-60
2021/09/19 11:22:38;;;;;;;5.88;1.63;;;;;;;23.31;45.22;100012.28;5116107;28;20031;-60